createdAt,value
2023-07-14T00:00:07.981Z,9.303107
2023-07-14T00:01:08.004Z,9.303105
2023-07-14T00:02:08.001Z,9.303071
2023-07-14T00:03:07.968Z,9.303020
2023-07-14T00:04:08.139Z,9.303028
2023-07-14T00:05:07.868Z,9.303045
2023-07-14T00:06:07.864Z,9.303047
2023-07-14T00:07:07.902Z,9.303069
2023-07-14T00:08:08.075Z,9.303030
2023-07-14T00:09:07.848Z,9.303055
2023-07-14T00:10:07.945Z,9.303086
2023-07-14T00:11:07.911Z,9.303114
2023-07-14T00:12:07.839Z,9.303072
2023-07-14T00:13:08.067Z,9.303070
2023-07-14T00:14:07.789Z,9.303026
2023-07-14T00:15:07.991Z,9.303015
2023-07-14T00:16:07.842Z,9.303101
2023-07-14T00:17:07.865Z,9.302997
2023-07-14T00:18:07.913Z,9.302995
2023-07-14T00:19:07.807Z,9.303067
2023-07-14T00:20:08.093Z,9.303073
2023-07-14T00:21:07.756Z,9.303046
2023-07-14T00:22:07.889Z,9.303033
2023-07-14T00:23:07.730Z,9.303033
2023-07-14T00:24:07.666Z,9.303032
2023-07-14T00:25:07.690Z,9.303030
2023-07-14T00:26:07.681Z,9.303070
2023-07-14T00:27:08.907Z,9.303016
2023-07-14T00:28:07.666Z,9.303008
2023-07-14T00:29:07.744Z,9.303022
2023-07-14T00:30:07.742Z,9.303030
2023-07-14T00:31:07.814Z,9.303015
2023-07-14T00:32:08.395Z,9.303057
2023-07-14T00:33:07.715Z,9.303024
2023-07-14T00:34:07.797Z,9.303046
2023-07-14T00:35:07.681Z,9.303001
2023-07-14T00:36:07.742Z,9.303023
2023-07-14T00:37:07.651Z,9.302996
2023-07-14T00:38:07.502Z,9.303049
2023-07-14T00:39:08.351Z,9.302960
2023-07-14T00:40:07.615Z,9.302981
2023-07-14T00:41:07.718Z,9.303001
2023-07-14T00:42:07.572Z,9.303048
2023-07-14T00:43:07.737Z,9.303068
2023-07-14T00:44:07.648Z,9.303014
2023-07-14T00:45:07.534Z,9.303020
2023-07-14T00:46:08.498Z,9.303025
2023-07-14T00:47:07.628Z,9.303025
2023-07-14T00:48:08.038Z,9.302992
2023-07-14T00:49:07.421Z,9.303023
2023-07-14T00:50:07.569Z,9.303002
2023-07-14T00:51:07.612Z,9.303076
2023-07-14T00:52:07.504Z,9.302989
2023-07-14T00:53:07.486Z,9.303082
2023-07-14T00:54:07.431Z,9.303074
2023-07-14T00:55:07.596Z,9.303025
2023-07-14T00:56:07.372Z,9.303010
2023-07-14T00:57:07.456Z,9.303061
2023-07-14T00:58:08.066Z,9.303010
2023-07-14T00:59:07.494Z,9.302997
2023-07-14T01:00:07.706Z,9.302958
2023-07-14T01:01:07.520Z,9.303053
2023-07-14T01:02:07.472Z,9.303038
2023-07-14T01:03:07.567Z,9.303080
2023-07-14T01:04:07.397Z,9.303033
2023-07-14T01:05:07.586Z,9.303064
2023-07-14T01:06:07.326Z,9.303013
2023-07-14T01:07:07.463Z,9.303072
2023-07-14T01:08:07.437Z,9.303079
2023-07-14T01:09:07.425Z,9.303061
2023-07-14T01:10:07.363Z,9.303052
2023-07-14T01:11:07.263Z,9.303073
2023-07-14T01:12:07.390Z,9.303035
2023-07-14T01:13:07.579Z,9.303102
2023-07-14T01:14:07.479Z,9.303043
2023-07-14T01:15:07.397Z,9.303130
2023-07-14T01:16:07.253Z,9.303006
2023-07-14T01:17:07.474Z,9.303127
2023-07-14T01:18:07.379Z,9.303063
2023-07-14T01:19:07.205Z,9.303057
2023-07-14T01:20:07.220Z,9.303057
2023-07-14T01:21:07.189Z,9.303069
2023-07-14T01:22:07.212Z,9.303017
2023-07-14T01:23:07.372Z,9.303038
2023-07-14T01:24:07.104Z,9.302983
2023-07-14T01:25:07.271Z,9.302977
2023-07-14T01:26:07.688Z,9.302985
2023-07-14T01:27:07.153Z,9.303072
2023-07-14T01:28:07.225Z,9.303084
2023-07-14T01:29:07.406Z,9.303014
2023-07-14T01:30:07.062Z,9.303039
2023-07-14T01:31:07.292Z,9.303060
2023-07-14T01:32:07.180Z,9.302972
2023-07-14T01:33:07.226Z,9.303073
2023-07-14T01:34:07.099Z,9.302978
2023-07-14T01:35:07.135Z,9.303106
2023-07-14T01:36:07.873Z,9.303105
2023-07-14T01:37:08.948Z,9.302948
2023-07-14T01:38:08.078Z,9.302989
2023-07-14T01:39:07.130Z,9.303102
2023-07-14T01:40:07.086Z,9.302979
2023-07-14T01:41:07.739Z,9.303000
2023-07-14T01:42:06.962Z,9.302918
2023-07-14T01:43:07.258Z,9.302894
2023-07-14T01:44:06.956Z,9.302560
2023-07-14T01:45:07.515Z,9.302847
2023-07-14T01:46:06.967Z,9.302979
2023-07-14T01:47:06.947Z,9.302977
2023-07-14T01:48:07.102Z,9.302904
2023-07-14T01:49:06.825Z,9.303029
2023-07-14T01:50:07.056Z,9.302940
2023-07-14T01:51:06.903Z,9.302934
2023-07-14T01:52:06.873Z,9.302927
2023-07-14T01:53:06.950Z,9.303039
2023-07-14T01:54:07.031Z,9.303002
2023-07-14T01:55:07.064Z,9.302806
2023-07-14T01:56:06.969Z,9.302704
2023-07-14T01:57:06.915Z,9.303054
2023-07-14T01:58:06.858Z,9.302960
2023-07-14T01:59:06.758Z,9.302953
2023-07-14T02:00:06.872Z,9.302991
2023-07-14T02:01:06.815Z,9.302901
2023-07-14T02:02:06.898Z,9.302972
2023-07-14T02:03:07.058Z,9.303110
2023-07-14T02:04:07.461Z,9.302970
2023-07-14T02:05:06.809Z,9.303055
2023-07-14T02:06:06.790Z,9.302991
2023-07-14T02:07:07.460Z,9.303075
2023-07-14T02:08:06.814Z,9.302996
2023-07-14T02:09:06.679Z,9.303059
2023-07-14T02:10:06.672Z,9.303057
2023-07-14T02:11:06.754Z,9.303015
2023-07-14T02:12:06.733Z,9.303066
2023-07-14T02:13:06.623Z,9.303064
2023-07-14T02:14:06.912Z,9.303061
2023-07-14T02:15:06.610Z,9.303022
2023-07-14T02:16:07.160Z,9.302963
2023-07-14T02:17:06.830Z,9.303048
2023-07-14T02:18:06.791Z,9.303134
2023-07-14T02:19:06.651Z,9.303106
2023-07-14T02:20:06.651Z,9.303044
2023-07-14T02:21:06.856Z,9.303036
2023-07-14T02:22:06.624Z,9.303085
2023-07-14T02:23:07.112Z,9.303067
2023-07-14T02:24:06.625Z,9.303018
2023-07-14T02:25:06.721Z,9.303096
2023-07-14T02:26:07.563Z,9.303110
2023-07-14T02:27:06.630Z,9.303045
2023-07-14T02:28:06.492Z,9.302976
2023-07-14T02:29:06.657Z,9.303020
2023-07-14T02:30:06.572Z,9.303040
2023-07-14T02:31:06.652Z,9.303033
2023-07-14T02:32:06.740Z,9.302932
2023-07-14T02:33:06.898Z,9.303063
2023-07-14T02:34:06.397Z,9.303041
2023-07-14T02:35:06.715Z,9.302996
2023-07-14T02:36:06.438Z,9.303016
2023-07-14T02:37:07.677Z,9.303029
2023-07-14T02:38:06.708Z,9.302982
2023-07-14T02:39:06.530Z,9.303034
2023-07-14T02:40:06.562Z,9.303024
2023-07-14T02:41:06.626Z,9.302986
2023-07-14T02:42:06.930Z,9.302978
2023-07-14T02:43:06.913Z,9.303000
2023-07-14T02:44:06.463Z,9.303004
2023-07-14T02:45:06.567Z,9.303000
2023-07-14T02:46:06.415Z,9.303061
2023-07-14T02:47:06.601Z,9.303096
2023-07-14T02:48:06.480Z,9.303063
2023-07-14T02:49:06.448Z,9.303011
2023-07-14T02:50:06.455Z,9.302966
2023-07-14T02:51:06.435Z,9.302935
2023-07-14T02:52:07.294Z,9.302907
2023-07-14T02:53:06.380Z,9.302971
2023-07-14T02:54:06.295Z,9.302958
2023-07-14T02:55:06.423Z,9.302963
2023-07-14T02:56:06.468Z,9.302877
2023-07-14T02:57:06.347Z,9.302837
2023-07-14T02:58:06.479Z,9.302945
2023-07-14T02:59:06.571Z,9.302900
2023-07-14T03:00:06.240Z,9.302946
2023-07-14T03:01:06.266Z,9.302903
2023-07-14T03:02:06.213Z,9.302939
2023-07-14T03:03:06.265Z,9.302954
2023-07-14T03:04:06.489Z,9.302929
2023-07-14T03:05:06.514Z,9.302902
2023-07-14T03:06:06.291Z,9.302908
2023-07-14T03:07:06.347Z,9.302988
2023-07-14T03:08:08.661Z,9.302955
2023-07-14T03:09:06.396Z,9.303043
2023-07-14T03:10:06.317Z,9.303108
2023-07-14T03:11:07.092Z,9.303003
2023-07-14T03:12:06.343Z,9.302999
2023-07-14T03:13:06.265Z,9.303003
2023-07-14T03:14:06.122Z,9.302959
2023-07-14T03:15:06.104Z,9.302985
2023-07-14T03:16:06.258Z,9.303068
2023-07-14T03:17:07.078Z,9.303007
2023-07-14T03:18:06.536Z,9.302984
2023-07-14T03:19:06.236Z,9.303033
2023-07-14T03:20:06.261Z,9.303093
2023-07-14T03:21:06.117Z,9.303024
2023-07-14T03:22:06.081Z,9.303015
2023-07-14T03:23:06.156Z,9.302999
2023-07-14T03:24:06.113Z,9.302978
2023-07-14T03:25:05.937Z,9.302955
2023-07-14T03:26:05.995Z,9.302972
2023-07-14T03:27:06.725Z,9.302993
2023-07-14T03:28:05.971Z,9.303041
2023-07-14T03:29:05.953Z,9.302989
2023-07-14T03:30:06.514Z,9.302985
2023-07-14T03:31:06.033Z,9.303010
2023-07-14T03:32:06.080Z,9.303053
2023-07-14T03:33:05.981Z,9.303076
2023-07-14T03:34:06.006Z,9.303014
2023-07-14T03:35:05.958Z,9.302996
2023-07-14T03:36:05.996Z,9.303011
2023-07-14T03:37:06.125Z,9.303033
2023-07-14T03:38:05.864Z,9.303039
2023-07-14T03:39:05.811Z,9.303065
2023-07-14T03:40:05.741Z,9.303078
2023-07-14T03:41:05.790Z,9.303031
2023-07-14T03:42:05.977Z,9.303027
2023-07-14T03:43:05.827Z,9.303142
2023-07-14T03:44:05.868Z,9.303092
2023-07-14T03:45:05.659Z,9.303015
2023-07-14T03:46:05.881Z,9.303028
2023-07-14T03:47:05.964Z,9.303122
2023-07-14T03:48:05.912Z,9.303041
2023-07-14T03:49:06.524Z,9.302985
2023-07-14T03:50:05.651Z,9.303051
2023-07-14T03:51:05.863Z,9.303042
2023-07-14T03:52:05.727Z,9.302964
2023-07-14T03:53:05.769Z,9.302950
2023-07-14T03:54:05.730Z,9.302995
2023-07-14T03:55:05.784Z,9.303057
2023-07-14T03:56:05.677Z,9.303016
2023-07-14T03:57:05.624Z,9.303074
2023-07-14T03:58:05.991Z,9.303046
2023-07-14T03:59:05.526Z,9.302974
2023-07-14T04:00:05.563Z,9.302956
2023-07-14T04:01:05.725Z,9.303092
2023-07-14T04:02:05.852Z,9.302998
2023-07-14T04:03:05.769Z,9.302997
2023-07-14T04:04:05.662Z,9.302990
2023-07-14T04:05:06.078Z,9.302988
2023-07-14T04:06:05.641Z,9.302997
2023-07-14T04:07:05.623Z,9.303019
2023-07-14T04:08:05.786Z,9.303075
2023-07-14T04:09:05.517Z,9.303059
2023-07-14T04:10:05.908Z,9.302992
2023-07-14T04:11:05.488Z,9.303134
2023-07-14T04:12:05.537Z,9.303164
2023-07-14T04:13:05.481Z,9.303127
2023-07-14T04:14:05.603Z,9.303062
2023-07-14T04:15:07.203Z,9.303081
2023-07-14T04:16:05.644Z,9.303099
2023-07-14T04:17:05.481Z,9.303041
2023-07-14T04:18:06.658Z,9.303076
2023-07-14T04:19:05.659Z,9.303101
2023-07-14T04:20:05.561Z,9.303026
2023-07-14T04:21:05.545Z,9.303068
2023-07-14T04:22:05.527Z,9.303065
2023-07-14T04:23:05.557Z,9.303051
2023-07-14T04:24:05.930Z,9.303016
2023-07-14T07:04:37.339Z,9.303177
2023-07-14T07:06:05.302Z,9.303177
2023-07-14T07:08:07.096Z,9.303177
2023-07-14T07:08:57.439Z,9.303177
2023-07-14T07:34:14.034Z,9.303165
2023-07-14T07:34:58.416Z,9.303021
2023-07-14T07:35:51.870Z,9.303082
2023-07-14T07:36:40.265Z,9.302989
2023-07-14T07:38:01.455Z,9.303061
2023-07-14T07:38:57.002Z,9.303086
2023-07-14T07:39:43.217Z,9.303088
2023-07-14T07:40:36.827Z,9.303082
2023-07-14T07:41:38.335Z,9.303095
2023-07-14T07:42:38.892Z,9.303012
2023-07-14T08:01:54.290Z,9.304067
2023-07-14T08:02:58.036Z,9.304067
2023-07-14T08:03:50.970Z,9.303640
2023-07-14T08:06:30.859Z,9.303723
2023-07-14T08:07:54.710Z,9.303723
2023-07-14T08:23:46.807Z,9.303232
2023-07-14T08:24:45.973Z,9.303161
2023-07-14T08:25:45.921Z,9.303145
2023-07-14T08:26:45.968Z,9.303062
2023-07-14T08:27:45.927Z,9.303107
2023-07-14T08:28:46.035Z,9.303031
2023-07-14T08:29:45.858Z,9.303125
2023-07-14T08:30:45.960Z,9.303142
2023-07-14T08:31:45.922Z,9.303186
2023-07-14T08:32:45.949Z,9.303158
2023-07-14T08:33:45.895Z,9.303141
2023-07-14T08:34:45.915Z,9.303204
2023-07-14T08:35:46.606Z,9.303076
2023-07-14T08:36:45.828Z,9.303123
2023-07-14T08:37:45.853Z,9.303094
2023-07-14T08:38:45.847Z,9.303108
2023-07-14T08:39:45.882Z,9.303149
2023-07-14T08:40:45.862Z,9.303125
2023-07-14T08:41:45.757Z,9.303147
2023-07-14T08:42:45.793Z,9.303109
2023-07-14T08:48:20.506Z,9.303322
2023-07-14T08:49:20.918Z,9.303175
2023-07-14T08:50:20.173Z,9.303298
2023-07-14T08:51:19.902Z,9.303209
2023-07-14T08:52:19.993Z,9.303168
2023-07-14T08:53:20.196Z,9.303101
2023-07-14T08:54:19.910Z,9.302993
2023-07-14T08:55:20.442Z,9.302950
2023-07-14T08:56:19.852Z,9.302988
2023-07-14T08:57:19.815Z,9.302984
2023-07-14T08:58:19.881Z,9.302999
2023-07-14T08:59:19.927Z,9.303005
2023-07-14T09:00:19.971Z,9.303031
2023-07-14T09:01:19.903Z,9.303166
2023-07-14T09:02:19.735Z,9.303162
2023-07-14T09:09:36.671Z,9.303215
2023-07-14T09:10:37.209Z,9.303323
2023-07-14T09:11:36.693Z,9.302979
2023-07-14T09:12:36.698Z,9.303008
2023-07-14T09:13:36.575Z,9.303094
2023-07-14T09:14:36.509Z,9.303231
2023-07-14T09:15:36.448Z,9.303284
2023-07-14T09:16:36.744Z,9.303213
2023-07-14T09:17:36.558Z,9.303199
2023-07-14T09:28:51.942Z,9.303047
2023-07-14T09:29:50.979Z,9.303040
2023-07-14T09:30:51.056Z,9.303140
2023-07-14T09:31:51.060Z,9.303036
2023-07-14T09:32:50.959Z,9.302979
2023-07-14T09:34:25.467Z,9.303114
2023-07-14T09:34:51.496Z,9.303093
2023-07-14T09:55:12.305Z,9.303141
2023-07-14T09:56:12.062Z,9.303131
2023-07-14T10:26:12.373Z,9.302304
2023-07-14T10:27:13.274Z,9.302164
2023-07-14T10:42:04.539Z,9.302836
2023-07-14T10:43:04.188Z,9.303043
2023-07-14T10:44:04.136Z,9.303178
2023-07-14T10:45:04.137Z,9.303145
2023-07-14T10:46:04.128Z,9.303049
2023-07-14T10:47:04.132Z,9.303042
2023-07-14T11:18:38.090Z,9.302966
2023-07-14T11:19:46.561Z,9.303043
2023-07-14T11:20:40.008Z,9.303020
2023-07-14T11:21:37.900Z,9.303029
2023-07-14T11:22:37.907Z,9.302972
2023-07-14T11:23:38.324Z,9.303092
2023-07-14T11:24:37.794Z,9.303043
2023-07-14T11:25:37.853Z,9.303034
2023-07-14T11:26:38.773Z,9.303040
2023-07-14T11:27:38.241Z,9.303028
2023-07-14T11:28:38.821Z,9.303001
2023-07-14T11:29:37.784Z,9.302958
2023-07-14T11:30:37.776Z,9.302988
2023-07-14T11:31:37.845Z,9.303038
2023-07-14T11:32:37.801Z,9.302982
2023-07-14T11:33:37.803Z,9.303099
2023-07-14T11:34:37.797Z,9.303028
2023-07-14T11:35:37.740Z,9.303110
2023-07-14T11:36:37.791Z,9.303046
2023-07-14T11:37:37.805Z,9.303122
2023-07-14T11:38:37.932Z,9.303113
2023-07-14T11:39:37.755Z,9.303073
2023-07-14T11:40:37.686Z,9.303107
2023-07-14T11:41:37.744Z,9.303082
2023-07-14T11:42:37.721Z,9.303121
2023-07-14T11:43:37.725Z,9.303102
2023-07-14T11:44:37.618Z,9.303028
2023-07-14T11:45:37.754Z,9.303076
2023-07-14T11:46:37.667Z,9.303082
2023-07-14T11:47:37.823Z,9.303114
2023-07-14T12:14:52.818Z,9.303362
2023-07-14T12:15:59.155Z,9.303284
2023-07-14T12:17:21.964Z,9.303252
2023-07-14T12:17:59.036Z,9.303185
2023-07-14T12:18:49.580Z,9.303199
2023-07-14T12:19:48.772Z,9.303176
2023-07-14T12:20:55.471Z,9.303152
2023-07-14T12:21:48.766Z,9.303038
2023-07-14T12:23:19.247Z,9.303090
2023-07-14T12:25:08.018Z,9.303168
2023-07-14T12:25:16.574Z,9.303168
2023-07-14T12:31:58.754Z,9.303084
2023-07-14T12:32:57.860Z,9.303039
2023-07-14T12:33:58.294Z,9.303041
2023-07-14T12:34:57.889Z,9.303123
2023-07-14T12:35:57.750Z,9.303037
2023-07-14T12:36:57.831Z,9.303062
2023-07-14T12:37:57.813Z,9.303115
2023-07-14T12:38:57.826Z,9.303082
2023-07-14T12:39:57.850Z,9.303072
2023-07-14T12:40:59.321Z,9.303223
2023-07-14T12:41:57.949Z,9.303183
2023-07-14T12:42:57.790Z,9.303042
2023-07-14T12:43:57.768Z,9.303052
2023-07-14T12:44:57.767Z,9.302889
2023-07-14T12:45:57.859Z,9.303154
2023-07-14T12:46:57.738Z,9.303040
2023-07-14T12:47:57.695Z,9.302921
2023-07-14T12:48:57.759Z,9.303026
2023-07-14T12:49:58.170Z,9.303070
2023-07-14T12:50:58.897Z,9.303089
2023-07-14T12:51:58.394Z,9.303048
2023-07-14T12:52:57.655Z,9.303020
2023-07-14T12:53:57.749Z,9.303057
2023-07-14T12:54:57.726Z,9.302987
2023-07-14T12:55:57.582Z,9.302938
2023-07-14T12:56:57.938Z,9.303002
2023-07-14T12:57:58.186Z,9.303042
2023-07-14T12:58:58.354Z,9.303072
2023-07-14T12:59:58.773Z,9.303027
2023-07-14T13:00:57.691Z,9.303040
2023-07-14T13:01:57.781Z,9.303147
2023-07-14T13:03:00.902Z,9.303075
2023-07-14T13:03:59.186Z,9.303036
2023-07-14T13:04:57.747Z,9.303063
2023-07-14T13:05:59.952Z,9.303104
2023-07-14T13:06:57.495Z,9.302995
2023-07-14T13:07:57.580Z,9.303005
2023-07-14T13:08:58.357Z,9.303024
2023-07-14T13:09:57.701Z,9.303065
2023-07-14T13:10:57.602Z,9.302944
2023-07-14T13:11:57.496Z,9.302966
2023-07-14T13:12:57.467Z,9.302928
2023-07-14T13:13:57.681Z,9.303020
2023-07-14T13:14:57.451Z,9.303050
2023-07-14T13:15:57.972Z,9.303050
2023-07-14T13:16:57.417Z,9.303064
2023-07-14T13:17:57.510Z,9.303083
2023-07-14T13:18:57.331Z,9.303115
2023-07-14T13:19:57.413Z,9.303049
2023-07-14T13:20:58.047Z,9.303063
2023-07-14T13:21:57.350Z,9.302999
2023-07-14T13:22:57.484Z,9.302992
2023-07-14T13:23:57.363Z,9.303041
2023-07-14T13:24:57.416Z,9.303044
2023-07-14T13:25:57.445Z,9.303010
2023-07-14T13:26:57.530Z,9.303037
2023-07-14T13:27:57.414Z,9.303041
2023-07-14T13:28:57.397Z,9.303022
2023-07-14T13:29:57.982Z,9.303060
2023-07-14T13:30:57.359Z,9.303099
2023-07-14T13:31:57.302Z,9.303032
2023-07-14T13:32:57.921Z,9.303026
2023-07-14T13:33:57.257Z,9.303046
2023-07-14T13:34:57.485Z,9.303061
2023-07-14T13:35:57.536Z,9.303098
2023-07-14T13:36:57.490Z,9.303048
2023-07-14T13:37:57.172Z,9.303107
2023-07-14T13:38:57.195Z,9.303369
2023-07-14T13:39:57.184Z,9.303063
2023-07-14T13:40:57.311Z,9.302942
2023-07-14T13:41:57.299Z,9.302973
2023-07-14T13:42:57.861Z,9.302985
2023-07-14T13:43:57.221Z,9.302972
2023-07-14T13:44:57.206Z,9.302969
2023-07-14T13:45:57.812Z,9.302965
2023-07-14T13:46:57.473Z,9.302908
2023-07-14T13:47:57.262Z,9.302978
2023-07-14T13:48:57.041Z,9.303024
2023-07-14T13:49:57.259Z,9.303024
2023-07-14T13:50:57.061Z,9.302994
2023-07-14T13:51:57.053Z,9.302945
2023-07-14T13:52:57.029Z,9.302931
2023-07-14T13:53:57.418Z,9.303008
2023-07-14T13:54:57.052Z,9.303003
2023-07-14T13:55:57.163Z,9.303022
2023-07-14T13:56:57.029Z,9.303000
2023-07-14T13:57:57.124Z,9.303080
2023-07-14T13:58:56.990Z,9.303044
2023-07-14T13:59:56.960Z,9.303058
2023-07-14T14:00:57.044Z,9.303096
2023-07-14T14:01:57.026Z,9.303079
2023-07-14T14:02:57.936Z,9.303115
2023-07-14T14:03:57.325Z,9.303108
2023-07-14T14:04:57.272Z,9.303071
2023-07-14T14:05:57.013Z,9.303153
2023-07-14T14:06:56.963Z,9.303140
2023-07-14T14:07:56.884Z,9.303095
2023-07-14T14:08:56.880Z,9.303147
2023-07-14T14:09:58.014Z,9.303164
2023-07-14T14:10:57.955Z,9.303072
2023-07-14T14:11:57.111Z,9.303147
2023-07-14T14:12:56.810Z,9.303146
2023-07-14T14:13:56.807Z,9.303068
2023-07-14T14:14:56.829Z,9.303005
2023-07-14T14:15:56.789Z,9.302997
2023-07-14T14:16:56.797Z,9.303050
2023-07-14T14:17:56.809Z,9.303010
2023-07-14T14:18:57.421Z,9.303031
2023-07-14T14:19:56.759Z,9.303067
2023-07-14T14:20:56.765Z,9.303094
2023-07-14T14:21:56.703Z,9.303031
2023-07-14T14:22:56.890Z,9.303067
2023-07-14T14:23:56.868Z,9.303144
2023-07-14T14:24:56.927Z,9.303083
2023-07-14T14:25:57.728Z,9.303059
2023-07-14T14:26:58.477Z,9.303081
2023-07-14T14:27:58.695Z,9.303056
2023-07-14T14:28:56.929Z,9.303031
2023-07-14T14:29:56.706Z,9.303118
2023-07-14T14:30:56.673Z,9.303074
2023-07-14T14:31:56.682Z,9.303019
2023-07-14T14:32:56.694Z,9.303021
2023-07-14T14:33:56.695Z,9.303147
2023-07-14T14:34:56.661Z,9.303014
2023-07-14T14:35:57.396Z,9.303016
2023-07-14T14:36:56.629Z,9.302964
2023-07-14T14:37:56.723Z,9.302948
2023-07-14T14:38:56.784Z,9.302967
2023-07-14T14:39:56.841Z,9.303022
2023-07-14T14:41:29.288Z,9.302984
2023-07-14T14:41:58.285Z,9.303037
2023-07-14T14:49:01.124Z,9.302773
2023-07-14T14:49:59.361Z,9.303059
2023-07-14T14:50:59.328Z,9.302998
2023-07-14T14:52:00.384Z,9.303003
2023-07-14T14:52:59.448Z,9.303067
2023-07-14T14:53:59.471Z,9.302965
2023-07-14T14:54:59.379Z,9.302945
2023-07-14T14:55:59.313Z,9.302987
2023-07-14T14:56:59.394Z,9.303012
2023-07-14T14:57:59.296Z,9.302994
2023-07-14T14:59:00.252Z,9.303007
2023-07-14T15:00:00.107Z,9.303020
2023-07-14T15:00:59.216Z,9.303016
2023-07-14T15:01:59.267Z,9.303026
2023-07-14T15:02:59.355Z,9.303082
2023-07-14T15:03:59.490Z,9.303102
2023-07-14T15:04:59.158Z,9.303066
2023-07-14T15:05:59.218Z,9.303053
2023-07-14T15:06:59.201Z,9.303037
2023-07-14T15:07:59.313Z,9.303023
2023-07-14T15:08:59.155Z,9.303038
2023-07-14T15:09:59.208Z,9.303060
2023-07-14T15:10:59.154Z,9.303050
2023-07-14T15:11:59.187Z,9.303072
2023-07-14T15:12:59.251Z,9.303062
2023-07-14T15:13:59.202Z,9.303088
2023-07-14T15:14:59.043Z,9.303060
2023-07-14T15:15:59.098Z,9.303061
2023-07-14T15:16:59.081Z,9.303129
2023-07-14T15:17:59.184Z,9.303093
2023-07-14T15:18:59.250Z,9.303075
2023-07-14T15:19:59.248Z,9.303097
2023-07-14T15:20:59.046Z,9.303060
2023-07-14T15:21:59.088Z,9.303032
2023-07-14T15:22:59.126Z,9.303046
2023-07-14T15:23:59.019Z,9.303001
2023-07-14T15:24:59.120Z,9.302988
2023-07-14T15:25:59.343Z,9.303046
2023-07-14T15:26:58.947Z,9.303029
2023-07-14T15:28:00.056Z,9.303004
2023-07-14T15:28:59.001Z,9.303022
2023-07-14T15:29:58.969Z,9.303032
2023-07-14T15:30:59.135Z,9.303094
2023-07-14T15:31:59.858Z,9.302940
2023-07-14T15:32:59.028Z,9.303057
2023-07-14T15:33:58.900Z,9.303023
2023-07-14T15:34:58.913Z,9.303010
2023-07-14T15:35:58.851Z,9.302992
2023-07-14T15:36:59.661Z,9.302995
2023-07-14T15:37:58.952Z,9.303044
2023-07-14T15:38:58.885Z,9.302980
2023-07-14T15:39:58.949Z,9.303034
2023-07-14T15:40:58.870Z,9.303083
2023-07-14T15:41:59.029Z,9.303018
2023-07-14T15:42:58.893Z,9.303037
2023-07-14T15:43:59.508Z,9.303057
2023-07-14T15:44:58.854Z,9.303055
2023-07-14T15:46:00.305Z,9.303037
2023-07-14T15:47:04.861Z,9.303049
2023-07-14T15:48:00.370Z,9.303032
2023-07-14T15:48:58.851Z,9.303089
2023-07-14T15:49:59.208Z,9.302987
2023-07-14T15:50:58.763Z,9.303108
2023-07-14T15:51:58.786Z,9.303019
2023-07-14T15:52:58.737Z,9.302836
2023-07-14T15:53:59.507Z,9.303061
2023-07-14T15:54:58.804Z,9.302982
2023-07-14T15:55:58.858Z,9.302986
2023-07-14T15:56:58.746Z,9.302981
2023-07-14T15:57:58.832Z,9.303010
2023-07-14T15:58:58.768Z,9.303064
2023-07-14T16:00:00.023Z,9.302993
2023-07-14T16:00:58.707Z,9.303013
2023-07-14T16:01:59.672Z,9.303021
2023-07-14T16:02:58.738Z,9.302999
2023-07-14T16:03:58.684Z,9.303058
2023-07-14T16:04:58.753Z,9.302987
2023-07-14T16:05:58.670Z,9.302954
2023-07-14T16:06:58.754Z,9.303211
2023-07-14T16:07:59.563Z,9.303103
2023-07-14T16:08:58.609Z,9.303067
2023-07-14T16:09:58.680Z,9.302986
2023-07-14T16:10:58.543Z,9.303041
2023-07-14T16:11:58.633Z,9.303093
2023-07-14T16:12:58.572Z,9.303210
2023-07-14T16:13:58.666Z,9.302991
2023-07-14T16:14:59.068Z,9.302963
2023-07-14T16:15:59.021Z,9.303045
2023-07-14T16:16:59.631Z,9.303052
2023-07-14T16:17:58.631Z,9.303053
2023-07-14T16:18:58.624Z,9.303083
2023-07-14T16:19:58.738Z,9.302950
2023-07-14T16:20:59.443Z,9.302966
2023-07-14T16:22:04.327Z,9.303005
2023-07-14T16:23:00.311Z,9.302993
2023-07-14T16:23:58.576Z,9.302973
2023-07-14T16:24:59.007Z,9.302976
2023-07-14T16:25:58.499Z,9.303043
2023-07-14T16:26:58.924Z,9.302979
2023-07-14T16:27:58.619Z,9.303035
2023-07-14T16:28:58.586Z,9.303060
2023-07-14T16:29:59.135Z,9.303041
2023-07-14T16:30:58.581Z,9.303111
2023-07-14T16:31:59.044Z,9.303111
2023-07-14T16:32:58.447Z,9.302922
2023-07-14T16:33:58.428Z,9.303135
2023-07-14T16:34:58.554Z,9.302992
2023-07-14T16:36:00.134Z,9.303039
2023-07-14T16:36:59.837Z,9.303057
2023-07-14T16:37:58.378Z,9.303115
2023-07-14T16:38:58.432Z,9.303084
2023-07-14T16:39:58.501Z,9.303061
2023-07-14T16:40:58.443Z,9.303112
2023-07-14T16:41:58.285Z,9.303010
2023-07-14T16:42:58.400Z,9.303025
2023-07-14T16:43:58.319Z,9.303057
2023-07-14T16:44:59.648Z,9.303037
2023-07-14T16:45:59.293Z,9.302784
2023-07-14T16:46:58.461Z,9.302908
2023-07-14T16:47:58.464Z,9.302957
2023-07-14T16:48:58.297Z,9.303020
2023-07-14T16:49:58.436Z,9.303051
2023-07-14T16:50:58.313Z,9.303109
2023-07-14T16:51:58.238Z,9.303110
2023-07-14T16:52:59.716Z,9.303074
2023-07-14T16:53:58.194Z,9.303095
2023-07-14T16:54:58.365Z,9.303063
2023-07-14T16:55:58.278Z,9.303074
2023-07-14T16:56:58.154Z,9.303059
2023-07-14T16:57:58.162Z,9.303075
2023-07-14T16:58:58.099Z,9.303097
2023-07-14T16:59:59.299Z,9.303106
2023-07-14T17:00:58.115Z,9.303164
2023-07-14T17:01:58.209Z,9.303066
2023-07-14T17:02:58.371Z,9.303033
2023-07-14T17:08:15.598Z,9.303082
2023-07-14T17:15:31.322Z,9.303058
2023-07-14T17:16:30.212Z,9.303081
2023-07-14T17:17:30.282Z,9.303138
2023-07-14T17:18:30.369Z,9.303079
2023-07-14T17:19:30.121Z,9.303050
2023-07-14T17:20:30.096Z,9.303124
2023-07-14T17:21:30.304Z,9.303139
2023-07-14T17:22:30.102Z,9.303125
2023-07-14T17:23:30.142Z,9.303125
2023-07-14T17:24:31.106Z,9.303112
2023-07-14T17:25:30.238Z,9.303095
2023-07-14T17:26:30.127Z,9.303077
2023-07-14T17:27:30.062Z,9.303098
2023-07-14T17:28:30.024Z,9.303083
2023-07-14T17:29:30.072Z,9.303058
2023-07-14T17:30:30.106Z,9.303056
2023-07-14T17:31:30.050Z,9.303079
2023-07-14T17:32:30.065Z,9.303061
2023-07-14T17:33:29.982Z,9.303108
2023-07-14T17:34:30.014Z,9.303110
2023-07-14T17:35:29.994Z,9.303092
2023-07-14T17:36:30.060Z,9.303025
2023-07-14T17:37:30.053Z,9.303092
2023-07-14T17:38:29.999Z,9.303055
2023-07-14T17:39:46.492Z,9.303022
2023-07-14T17:40:31.945Z,9.303013
2023-07-14T17:41:29.916Z,9.303061
2023-07-14T17:42:29.878Z,9.303020
2023-07-14T17:43:35.208Z,9.302997
2023-07-14T17:44:31.057Z,9.303039
2023-07-14T17:45:29.864Z,9.302996
2023-07-14T17:46:29.871Z,9.302988
2023-07-14T17:47:29.916Z,9.303023
2023-07-14T17:48:30.002Z,9.303032
2023-07-14T17:49:31.197Z,9.303035
2023-07-14T17:50:29.885Z,9.303131
2023-07-14T17:51:29.855Z,9.303118
2023-07-14T17:52:30.006Z,9.303053
2023-07-14T17:53:29.862Z,9.303016
2023-07-14T17:54:29.823Z,9.303036
2023-07-14T17:55:29.757Z,9.303027
2023-07-14T17:56:29.845Z,9.303056
2023-07-14T17:57:38.198Z,9.303057
2023-07-14T17:58:30.810Z,9.303142
2023-07-14T17:59:32.333Z,9.303112
2023-07-14T18:00:32.745Z,9.303051
2023-07-14T18:14:49.635Z,9.302969
2023-07-14T18:15:51.447Z,9.303064
2023-07-14T18:16:50.052Z,9.303252
2023-07-14T18:17:49.903Z,9.303144
2023-07-14T18:18:49.536Z,9.303108
2023-07-14T18:19:49.426Z,9.303116